Portada
METAR-TAF:

METAR-TAF

Aeropuertos :

Galesburg Municipal Airport

Galesburg, Illinois, Estados Unidos

latitud: 40-56-17N, longitud: 090-25-52W, altitud: 233 m

Observación

El informe se hizo hace 27 minutos, a las 19:15 UTC
Viento 9 kt del sur-suroeste
Temperatura 32°C
Humedad 52%
Presión 1023 hPa
Visibilidad: 16.1 km
Nubes dispersas a una altura de 4900 ft
Cielo nuboso a una altura de 6500 ft

METAR: KGBG 191915Z AUTO 21009KT 10SM SCT049 BKN065 32/21 A3020 RMK AO2 T03210211

Hora: 14:42 (19:42 UTC)


TAF: falta

Observaciones y pronósticos meteorológicos de más de 4000 aeropuertos (mensajes METAR y TAF).

Los puntos amarillos y rojos representan las estaciones disponibles.

Ponga el ratón en el punto deseado para ver el nombre de la estación.

Haga clic para ver las observaciones y los pronósticos meteorológicos.

Para cambiar el mapa : haga clic en los botones verdes con una cruz de color negro para hacer un zoom, en el botón verde con un guión para alejar o en las flechas verdes para mapas adyacentes.


METAR-TAF: